createdAt,value
2022-09-29T00:00:54.712Z,2.90
2022-09-29T00:01:54.982Z,2.00
2022-09-29T00:02:55.077Z,1.50
2022-09-29T00:03:55.230Z,2.20
2022-09-29T00:04:55.399Z,2.80
2022-09-29T00:05:55.558Z,2.70
2022-09-29T00:06:55.767Z,3.20
2022-09-29T00:07:55.901Z,1.80
2022-09-29T00:08:56.059Z,3.20
2022-09-29T00:09:56.228Z,1.90
2022-09-29T00:10:56.388Z,2.20
2022-09-29T00:11:56.559Z,6.10
2022-09-29T00:12:56.727Z,1.20
2022-09-29T00:13:56.886Z,2.80
2022-09-29T00:14:57.048Z,1.90
2022-09-29T00:15:57.271Z,2.60
2022-09-29T00:16:57.418Z,3.70
2022-09-29T00:18:13.155Z,1.60
2022-09-29T00:18:58.779Z,1.60
2022-09-29T00:19:57.968Z,3.10
2022-09-29T00:20:58.128Z,3.20
2022-09-29T00:21:58.317Z,3.90
2022-09-29T00:22:58.469Z,1.70
2022-09-29T00:23:58.630Z,2.90
2022-09-29T00:24:58.788Z,3.40
2022-09-29T00:25:58.948Z,1.80
2022-09-29T00:26:59.137Z,4.30
2022-09-29T00:27:59.290Z,1.80
2022-09-29T00:28:59.488Z,2.90
2022-09-29T00:29:59.662Z,1.40
2022-09-29T00:30:59.818Z,3.60
2022-09-29T00:32:00.038Z,2.50
2022-09-29T00:33:00.170Z,2.90
2022-09-29T00:34:00.338Z,2.00
2022-09-29T00:35:00.498Z,2.90
2022-09-29T00:36:00.657Z,4.30
2022-09-29T00:37:00.874Z,2.80
2022-09-29T00:38:01.028Z,3.10
2022-09-29T00:39:01.234Z,2.80
2022-09-29T00:40:01.378Z,1.70
2022-09-29T00:41:01.647Z,3.00
2022-09-29T00:42:01.770Z,2.70
2022-09-29T00:43:01.929Z,4.10
2022-09-29T00:44:02.087Z,7.00
2022-09-29T00:45:02.251Z,3.60
2022-09-29T00:46:02.509Z,3.70
2022-09-29T00:47:02.618Z,2.40
2022-09-29T00:48:02.778Z,2.50
2022-09-29T00:49:02.968Z,3.20
2022-09-29T00:50:03.109Z,1.40
2022-09-29T00:51:03.308Z,2.10
2022-09-29T00:52:03.477Z,3.10
2022-09-29T00:53:03.640Z,2.20
2022-09-29T00:54:03.800Z,2.30
2022-09-29T00:55:03.963Z,1.60
2022-09-29T00:56:04.117Z,2.80
2022-09-29T00:57:04.297Z,1.80
2022-09-29T00:58:04.469Z,2.50
2022-09-29T00:59:04.619Z,1.70
2022-09-29T01:00:04.791Z,3.20
2022-09-29T01:01:05.060Z,3.90
2022-09-29T01:02:05.174Z,5.80
2022-09-29T01:03:05.324Z,4.50
2022-09-29T01:04:05.478Z,3.80
2022-09-29T01:05:05.645Z,2.30
2022-09-29T01:06:05.801Z,6.40
2022-09-29T01:07:06.007Z,4.60
2022-09-29T01:08:06.186Z,2.70
2022-09-29T01:09:06.354Z,4.00
2022-09-29T01:10:06.514Z,3.20
2022-09-29T01:11:06.715Z,3.00
2022-09-29T01:12:06.887Z,2.10
2022-09-29T01:13:07.056Z,2.20
2022-09-29T01:14:07.218Z,3.20
2022-09-29T01:15:07.376Z,2.10
2022-09-29T01:16:07.544Z,2.50
2022-09-29T01:17:07.727Z,5.00
2022-09-29T01:18:07.890Z,3.30
2022-09-29T01:19:08.074Z,4.10
2022-09-29T01:20:08.230Z,4.20
2022-09-29T01:21:08.395Z,3.70
2022-09-29T01:22:08.576Z,2.20
2022-09-29T01:23:08.736Z,2.50
2022-09-29T01:24:08.916Z,2.00
2022-09-29T01:25:09.074Z,3.90
2022-09-29T01:26:09.245Z,4.20
2022-09-29T01:27:09.423Z,4.10
2022-09-29T01:28:09.585Z,2.60
2022-09-29T01:29:09.746Z,3.20
2022-09-29T01:30:09.927Z,2.40
2022-09-29T01:31:10.140Z,4.70
2022-09-29T01:32:10.285Z,3.40
2022-09-29T01:33:10.445Z,3.00
2022-09-29T01:34:10.606Z,2.30
2022-09-29T01:35:10.766Z,3.30
2022-09-29T01:36:10.935Z,3.00
2022-09-29T01:37:11.142Z,3.60
2022-09-29T01:38:11.266Z,3.40
2022-09-29T01:39:11.427Z,3.70
2022-09-29T01:40:11.595Z,6.70
2022-09-29T01:41:11.745Z,3.00
2022-09-29T01:42:11.985Z,4.10
2022-09-29T01:43:12.104Z,3.50
2022-09-29T01:44:12.302Z,4.40
2022-09-29T01:45:12.446Z,3.70
2022-09-29T01:46:12.638Z,5.00
2022-09-29T01:47:12.794Z,4.30
2022-09-29T01:48:12.961Z,6.60
2022-09-29T01:49:13.116Z,3.50
2022-09-29T01:50:13.275Z,4.90
2022-09-29T01:51:13.443Z,4.10
2022-09-29T01:52:13.626Z,5.30
2022-09-29T01:53:13.775Z,4.10
2022-09-29T01:54:13.986Z,9.00
2022-09-29T01:55:14.144Z,5.20
2022-09-29T01:56:14.313Z,4.60
2022-09-29T01:57:14.504Z,5.60
2022-09-29T01:58:14.646Z,3.80
2022-09-29T01:59:14.813Z,4.50
2022-09-29T02:00:15.004Z,6.20
2022-09-29T02:01:15.226Z,3.90
2022-09-29T02:02:15.408Z,4.20
2022-09-29T02:03:15.514Z,6.00
2022-09-29T02:04:15.749Z,3.80
2022-09-29T02:05:15.893Z,4.90
2022-09-29T02:06:16.062Z,4.50
2022-09-29T02:07:16.233Z,5.10
2022-09-29T02:08:16.394Z,3.90
2022-09-29T02:09:16.545Z,6.80
2022-09-29T02:10:16.755Z,5.00
2022-09-29T02:11:16.916Z,5.00
2022-09-29T02:12:17.086Z,3.70
2022-09-29T02:13:17.244Z,6.70
2022-09-29T02:14:17.474Z,5.80
2022-09-29T02:15:17.563Z,4.80
2022-09-29T02:16:17.791Z,4.50
2022-09-29T02:17:17.954Z,5.90
2022-09-29T02:18:18.138Z,4.20
2022-09-29T02:19:18.292Z,4.70
2022-09-29T02:20:18.454Z,7.90
2022-09-29T02:21:18.613Z,4.50
2022-09-29T02:22:18.794Z,3.70
2022-09-29T02:23:18.954Z,5.00
2022-09-29T02:24:19.162Z,4.00
2022-09-29T02:25:19.297Z,5.00
2022-09-29T02:26:19.454Z,4.60
2022-09-29T02:27:19.634Z,4.00
2022-09-29T02:28:19.803Z,4.60
2022-09-29T02:29:19.964Z,4.60
2022-09-29T02:30:20.127Z,4.30
2022-09-29T02:31:20.346Z,5.50
2022-09-29T02:32:20.484Z,5.60
2022-09-29T02:33:20.651Z,4.50
2022-09-29T02:34:20.984Z,7.20
2022-09-29T02:35:20.983Z,6.30
2022-09-29T02:36:21.143Z,6.40
2022-09-29T02:37:21.323Z,6.20
2022-09-29T02:38:21.502Z,4.90
2022-09-29T02:39:21.664Z,5.20
2022-09-29T02:40:21.837Z,6.60
2022-09-29T02:41:22.014Z,6.80
2022-09-29T02:42:22.195Z,6.50
2022-09-29T02:43:22.354Z,9.10
2022-09-29T02:44:22.570Z,7.40
2022-09-29T02:45:22.724Z,6.70
2022-09-29T02:46:22.863Z,5.50
2022-09-29T02:47:23.042Z,4.80
2022-09-29T02:48:23.214Z,6.60
2022-09-29T02:49:23.362Z,7.40
2022-09-29T02:50:23.562Z,6.10
2022-09-29T02:51:23.721Z,4.70
2022-09-29T02:52:23.901Z,8.10
2022-09-29T02:53:24.054Z,6.90
2022-09-29T02:54:24.252Z,8.70
2022-09-29T02:55:24.415Z,6.50
2022-09-29T02:56:24.571Z,5.30
2022-09-29T02:57:24.751Z,4.80
2022-09-29T02:58:24.912Z,6.40
2022-09-29T02:59:25.071Z,7.40
2022-09-29T03:00:25.272Z,5.80
2022-09-29T03:01:25.481Z,5.90
2022-09-29T03:02:25.601Z,7.30
2022-09-29T03:03:25.799Z,7.30
2022-09-29T03:04:25.961Z,5.70
2022-09-29T03:05:26.116Z,7.50
2022-09-29T03:06:26.279Z,5.50
2022-09-29T03:07:26.451Z,8.70
2022-09-29T03:08:26.611Z,5.70
2022-09-29T03:09:26.772Z,5.40
2022-09-29T03:10:30.030Z,5.50
2022-09-29T03:11:27.103Z,6.60
2022-09-29T03:12:27.294Z,6.90
2022-09-29T03:13:27.441Z,5.90
2022-09-29T03:14:27.614Z,5.50
2022-09-29T03:15:27.763Z,5.80
2022-09-29T03:16:28.000Z,6.60
2022-09-29T03:17:28.122Z,6.20
2022-09-29T03:18:28.281Z,5.40
2022-09-29T03:19:28.450Z,6.80
2022-09-29T03:20:28.611Z,8.80
2022-09-29T03:21:28.769Z,7.30
2022-09-29T03:22:28.980Z,5.70
2022-09-29T03:23:29.131Z,8.80
2022-09-29T03:24:29.330Z,8.80
2022-09-29T03:25:29.490Z,8.10
2022-09-29T03:26:29.700Z,7.70
2022-09-29T03:27:29.864Z,7.00
2022-09-29T03:28:30.032Z,8.10
2022-09-29T03:29:30.180Z,6.80
2022-09-29T03:30:30.362Z,7.10
2022-09-29T03:31:30.571Z,7.70
2022-09-29T03:32:30.729Z,6.00
2022-09-29T03:33:30.881Z,6.50
2022-09-29T03:34:31.060Z,11.30
2022-09-29T03:35:31.209Z,7.80
2022-09-29T03:36:31.385Z,7.00
2022-09-29T03:37:31.540Z,6.70
2022-09-29T03:38:31.704Z,6.80
2022-09-29T03:39:31.861Z,8.30
2022-09-29T03:40:32.052Z,6.20
2022-09-29T03:41:32.211Z,6.90
2022-09-29T03:42:32.371Z,7.20
2022-09-29T03:43:32.531Z,7.50
2022-09-29T03:44:32.689Z,7.00
2022-09-29T03:45:32.877Z,8.60
2022-09-29T03:46:33.040Z,5.90
2022-09-29T03:47:33.189Z,6.50
2022-09-29T03:48:33.397Z,6.70
2022-09-29T03:49:33.572Z,6.10
2022-09-29T03:50:33.709Z,8.10
2022-09-29T03:51:33.892Z,6.20
2022-09-29T03:52:34.089Z,6.70
2022-09-29T03:53:34.229Z,5.60
2022-09-29T03:54:34.390Z,8.10
2022-09-29T03:55:34.554Z,8.50
2022-09-29T03:56:34.766Z,5.40
2022-09-29T03:57:34.929Z,7.60
2022-09-29T03:58:35.101Z,6.60
2022-09-29T03:59:35.268Z,7.50
2022-09-29T04:00:35.499Z,9.00
2022-09-29T04:01:35.624Z,7.30
2022-09-29T04:02:35.780Z,7.00
2022-09-29T04:03:35.996Z,6.80
2022-09-29T04:04:36.127Z,6.50
2022-09-29T04:05:36.280Z,8.00
2022-09-29T04:06:36.543Z,8.10
2022-09-29T04:07:36.629Z,7.30
2022-09-29T04:08:36.827Z,11.40
2022-09-29T04:09:37.002Z,5.50
2022-09-29T04:10:37.197Z,7.20
2022-09-29T04:11:37.374Z,6.50
2022-09-29T04:12:37.535Z,9.40
2022-09-29T04:13:37.690Z,7.90
2022-09-29T04:14:37.859Z,8.60
2022-09-29T04:15:38.019Z,8.40
2022-09-29T04:16:38.237Z,8.50
2022-09-29T04:17:38.358Z,8.50
2022-09-29T04:18:38.529Z,7.00
2022-09-29T04:19:38.690Z,6.50
2022-09-29T04:20:38.878Z,10.20
2022-09-29T04:21:39.058Z,7.70
2022-09-29T04:22:39.226Z,6.80
2022-09-29T04:23:39.380Z,9.10
2022-09-29T04:24:39.538Z,7.50
2022-09-29T04:25:39.708Z,7.60
2022-09-29T04:26:39.926Z,7.80
2022-09-29T04:27:40.056Z,9.30
2022-09-29T04:28:40.249Z,18.40
2022-09-29T04:29:40.420Z,8.00
2022-09-29T04:30:40.609Z,8.50
2022-09-29T04:31:40.905Z,7.70
2022-09-29T04:32:40.978Z,7.40
2022-09-29T04:33:41.138Z,9.20
2022-09-29T04:34:41.338Z,8.30
2022-09-29T04:35:41.508Z,9.30
2022-09-29T04:36:41.675Z,12.00
2022-09-29T04:37:41.848Z,7.00
2022-09-29T04:38:42.017Z,9.40
2022-09-29T04:39:42.188Z,7.70
2022-09-29T04:40:42.415Z,10.20
2022-09-29T04:41:42.517Z,8.70
2022-09-29T04:42:42.680Z,10.30
2022-09-29T04:43:42.847Z,9.30
2022-09-29T04:44:43.046Z,7.60
2022-09-29T04:45:43.381Z,8.40
2022-09-29T04:46:43.386Z,7.60
2022-09-29T04:47:43.527Z,7.60
2022-09-29T04:48:43.703Z,7.40
2022-09-29T04:49:43.857Z,10.30
2022-09-29T04:50:44.057Z,10.00
2022-09-29T04:51:44.208Z,10.00
2022-09-29T04:52:44.443Z,9.10
2022-09-29T04:53:44.582Z,7.80
2022-09-29T04:54:44.767Z,7.20
2022-09-29T04:55:44.957Z,10.60
2022-09-29T04:56:45.130Z,7.80
2022-09-29T04:57:45.284Z,8.40
2022-09-29T04:58:45.482Z,11.10
2022-09-29T04:59:45.617Z,8.60
2022-09-29T05:00:45.905Z,8.30
2022-09-29T05:01:46.044Z,9.40
2022-09-29T05:02:49.629Z,9.70
2022-09-29T05:03:46.327Z,9.60
2022-09-29T05:04:46.518Z,9.00
2022-09-29T05:05:46.717Z,9.40
2022-09-29T05:06:46.871Z,10.40
2022-09-29T05:07:47.031Z,10.40
2022-09-29T05:08:47.219Z,10.80
2022-09-29T05:09:47.384Z,11.80
2022-09-29T05:10:47.596Z,10.20
2022-09-29T05:11:47.745Z,8.40
2022-09-29T05:12:47.909Z,9.10
2022-09-29T05:13:48.057Z,9.70
2022-09-29T05:14:48.250Z,12.80
2022-09-29T05:15:48.453Z,9.20
2022-09-29T05:16:48.614Z,14.80
2022-09-29T05:17:48.766Z,10.40
2022-09-29T05:18:48.956Z,8.20
2022-09-29T05:19:49.138Z,9.80
2022-09-29T05:21:10.216Z,9.10
2022-09-29T05:21:50.526Z,10.30
2022-09-29T05:22:49.699Z,7.80
2022-09-29T05:23:49.876Z,9.30
2022-09-29T05:24:50.067Z,9.50
2022-09-29T05:25:50.245Z,11.20
2022-09-29T05:26:53.680Z,12.40
2022-09-29T05:27:51.577Z,12.30
2022-09-29T05:28:50.762Z,13.50
2022-09-29T05:29:50.917Z,9.30
2022-09-29T05:30:51.126Z,8.30
2022-09-29T05:31:51.314Z,9.40
2022-09-29T05:32:55.601Z,9.40
2022-09-29T05:33:52.636Z,11.50
2022-09-29T05:34:51.775Z,9.20
2022-09-29T05:35:51.996Z,9.60
2022-09-29T05:36:52.150Z,9.90
2022-09-29T05:37:52.354Z,9.20
2022-09-29T05:38:52.534Z,9.20
2022-09-29T05:39:52.685Z,9.00
2022-09-29T05:40:52.961Z,10.10
2022-09-29T05:41:56.465Z,11.50
2022-09-29T05:42:54.284Z,11.10
2022-09-29T05:43:53.481Z,11.60
2022-09-29T05:44:53.658Z,8.80
2022-09-29T05:45:53.891Z,10.20
2022-09-29T05:46:54.016Z,10.60
2022-09-29T05:47:54.275Z,10.60
2022-09-29T05:48:54.345Z,9.70
2022-09-29T05:49:54.635Z,8.80
2022-09-29T05:50:54.727Z,11.30
2022-09-29T05:51:54.884Z,9.20
2022-09-29T05:52:55.035Z,9.50
2022-09-29T05:53:55.226Z,9.10
2022-09-29T05:54:55.376Z,9.60
2022-09-29T05:55:55.566Z,8.10
2022-09-29T05:56:55.767Z,8.40
2022-09-29T05:57:55.946Z,10.70
2022-09-29T05:58:56.106Z,11.50
2022-09-29T05:59:56.312Z,11.10
2022-09-29T06:00:56.510Z,11.00
2022-09-29T06:01:56.691Z,9.30
2022-09-29T06:02:56.785Z,13.10
2022-09-29T06:03:56.950Z,14.50
2022-09-29T06:04:57.121Z,9.50
2022-09-29T06:05:57.325Z,12.40
2022-09-29T06:06:57.474Z,10.40
2022-09-29T06:07:57.650Z,11.80
2022-09-29T06:08:57.815Z,9.50
2022-09-29T06:09:57.974Z,10.50
2022-09-29T06:10:58.185Z,14.00
2022-09-29T06:11:58.354Z,8.00
2022-09-29T06:12:58.524Z,7.30
2022-09-29T06:13:58.695Z,10.20
2022-09-29T06:14:58.849Z,9.40
2022-09-29T06:15:59.045Z,11.60
2022-09-29T06:16:59.265Z,11.90
2022-09-29T06:17:59.384Z,12.60
2022-09-29T06:18:59.545Z,21.50
2022-09-29T06:19:59.725Z,27.40
2022-09-29T06:20:59.914Z,16.20
2022-09-29T06:22:00.084Z,26.30
2022-09-29T06:23:00.242Z,15.90
2022-09-29T06:24:00.438Z,16.00
2022-09-29T06:25:00.596Z,11.00
2022-09-29T06:26:00.824Z,9.70
2022-09-29T06:27:00.953Z,9.80
2022-09-29T06:28:01.144Z,9.10
2022-09-29T06:29:01.331Z,11.80
2022-09-29T06:30:01.495Z,9.50
2022-09-29T06:31:01.674Z,16.30
2022-09-29T06:32:01.943Z,10.20
2022-09-29T06:33:02.005Z,12.20
2022-09-29T06:34:02.193Z,10.60
2022-09-29T06:35:02.368Z,9.10
2022-09-29T06:36:02.584Z,11.80
2022-09-29T06:37:02.747Z,10.60
2022-09-29T06:38:02.910Z,10.00
2022-09-29T06:39:03.062Z,9.10
2022-09-29T06:40:04.849Z,9.70
2022-09-29T06:41:03.524Z,9.70
2022-09-29T06:42:03.624Z,7.60
2022-09-29T06:43:03.770Z,8.80
2022-09-29T06:44:03.955Z,9.40
2022-09-29T06:45:04.113Z,8.10
2022-09-29T06:46:04.501Z,11.20
2022-09-29T06:47:04.463Z,11.10
2022-09-29T06:48:04.626Z,9.40
2022-09-29T06:49:04.815Z,11.80
2022-09-29T06:50:15.864Z,11.20
2022-09-29T06:51:10.176Z,10.80
2022-09-29T06:52:16.913Z,7.70
2022-09-29T06:53:06.504Z,10.70
2022-09-29T06:54:11.336Z,12.60
2022-09-29T06:55:06.833Z,11.50
2022-09-29T06:56:06.023Z,11.10
2022-09-29T06:57:06.183Z,8.40
2022-09-29T06:58:06.372Z,10.30
2022-09-29T06:59:06.523Z,10.60
2022-09-29T07:00:06.695Z,9.20
2022-09-29T07:01:06.918Z,10.50
2022-09-29T07:02:07.128Z,11.90
2022-09-29T07:03:07.223Z,9.60
2022-09-29T07:04:07.434Z,10.40
2022-09-29T07:05:07.586Z,9.60
2022-09-29T07:06:19.244Z,10.50
2022-09-29T07:07:08.945Z,11.50
2022-09-29T07:08:08.125Z,11.90
2022-09-29T07:09:08.280Z,9.60
2022-09-29T07:10:08.464Z,15.30
2022-09-29T07:11:08.633Z,18.80
2022-09-29T07:12:08.812Z,12.70
2022-09-29T07:13:08.983Z,13.40
2022-09-29T07:14:09.151Z,15.80
2022-09-29T07:15:09.304Z,11.90
2022-09-29T07:16:09.570Z,18.80
2022-09-29T07:17:09.680Z,16.60
2022-09-29T07:18:09.792Z,14.40
2022-09-29T07:19:10.039Z,11.80
2022-09-29T07:20:10.197Z,11.40
2022-09-29T07:21:10.332Z,8.80
2022-09-29T07:22:10.503Z,9.90
2022-09-29T07:23:10.733Z,12.90
2022-09-29T07:24:10.873Z,11.40
2022-09-29T07:25:19.308Z,10.80
2022-09-29T07:26:12.233Z,9.60
2022-09-29T07:27:11.425Z,11.90
2022-09-29T07:28:11.590Z,7.90
2022-09-29T07:29:21.396Z,13.10
2022-09-29T07:30:12.933Z,9.80
2022-09-29T07:31:15.291Z,11.20
2022-09-29T07:32:23.029Z,8.50
2022-09-29T07:33:13.424Z,11.80
2022-09-29T07:34:12.563Z,10.10
2022-09-29T07:35:12.733Z,10.40
2022-09-29T07:36:12.923Z,9.60
2022-09-29T07:37:13.073Z,12.70
2022-09-29T07:38:13.243Z,9.50
2022-09-29T07:39:13.383Z,9.60
2022-09-29T07:40:13.573Z,12.50
2022-09-29T07:41:13.752Z,13.10
2022-09-29T07:42:13.893Z,9.30
2022-09-29T07:43:14.100Z,11.40
2022-09-29T07:44:14.259Z,10.90
2022-09-29T07:45:14.423Z,10.60
2022-09-29T07:46:14.708Z,10.40
2022-09-29T07:47:14.765Z,12.90
2022-09-29T07:48:14.923Z,10.30
2022-09-29T07:49:15.170Z,10.70
2022-09-29T07:50:15.293Z,12.80
2022-09-29T07:51:15.594Z,9.00
2022-09-29T07:52:15.635Z,9.50
2022-09-29T07:53:15.783Z,10.70
2022-09-29T07:54:15.999Z,13.90
2022-09-29T07:55:16.124Z,9.90
2022-09-29T07:56:16.332Z,11.30
2022-09-29T07:57:16.505Z,9.80
2022-09-29T07:58:16.663Z,10.40
2022-09-29T07:59:16.803Z,11.30
2022-09-29T08:00:16.977Z,12.70
2022-09-29T08:01:17.173Z,9.50
2022-09-29T08:02:17.369Z,9.40
2022-09-29T08:03:17.532Z,10.40
2022-09-29T08:04:17.706Z,9.20
2022-09-29T08:05:17.834Z,9.60
2022-09-29T08:06:18.057Z,7.90
2022-09-29T08:07:18.173Z,12.20
2022-09-29T08:08:18.374Z,13.70
2022-09-29T08:09:18.721Z,9.30
2022-09-29T08:10:18.703Z,10.60
2022-09-29T08:11:28.417Z,12.20
2022-09-29T08:12:20.072Z,12.70
2022-09-29T08:13:19.234Z,9.20
2022-09-29T08:14:19.528Z,9.50
2022-09-29T08:15:19.586Z,11.70
2022-09-29T08:16:19.850Z,11.20
2022-09-29T08:17:19.903Z,9.70
2022-09-29T08:18:20.089Z,9.90
2022-09-29T08:19:20.265Z,10.40
2022-09-29T08:20:20.521Z,11.40
2022-09-29T08:21:20.624Z,9.30
2022-09-29T08:22:20.793Z,10.80
2022-09-29T08:23:20.975Z,11.40
2022-09-29T08:24:21.161Z,10.00
2022-09-29T08:25:21.313Z,9.20
2022-09-29T08:26:32.727Z,10.70
2022-09-29T08:27:22.634Z,14.50
2022-09-29T08:28:30.731Z,8.30
2022-09-29T08:29:22.954Z,9.70
2022-09-29T08:30:22.143Z,10.50
2022-09-29T08:31:22.338Z,10.10
2022-09-29T08:32:22.474Z,13.50
2022-09-29T08:33:22.644Z,11.60
2022-09-29T08:34:22.814Z,9.80
2022-09-29T08:35:22.984Z,10.00
2022-09-29T08:36:23.173Z,9.60
2022-09-29T08:37:23.327Z,9.90
2022-09-29T08:38:23.501Z,9.30
2022-09-29T08:39:23.674Z,9.70
2022-09-29T08:40:23.896Z,8.10
2022-09-29T08:41:24.037Z,13.40
2022-09-29T08:42:24.174Z,11.50
2022-09-29T08:43:33.222Z,15.60
2022-09-29T08:44:37.307Z,14.20
2022-09-29T08:45:25.676Z,10.80
2022-09-29T08:46:33.946Z,10.70
2022-09-29T08:47:34.827Z,10.30
2022-09-29T08:48:26.217Z,10.20
2022-09-29T08:49:32.827Z,9.30
2022-09-29T08:50:26.605Z,12.10
2022-09-29T08:51:37.365Z,9.00
2022-09-29T08:52:26.946Z,9.10
2022-09-29T08:53:29.038Z,54.10
2022-09-29T08:54:37.186Z,14.10
2022-09-29T08:55:27.433Z,11.20
2022-09-29T08:56:26.616Z,10.60
2022-09-29T08:57:26.767Z,10.20
2022-09-29T08:58:26.945Z,10.80
2022-09-29T08:59:27.105Z,14.00
2022-09-29T09:00:27.265Z,10.10
2022-09-29T09:01:27.541Z,10.70
2022-09-29T09:02:27.704Z,10.10
2022-09-29T09:03:27.795Z,7.60
2022-09-29T09:04:27.986Z,8.30
2022-09-29T09:05:28.155Z,10.40
2022-09-29T09:06:28.411Z,7.60
2022-09-29T09:07:28.517Z,9.00
2022-09-29T09:08:28.727Z,8.30
2022-09-29T09:09:28.875Z,7.00
2022-09-29T09:10:29.046Z,7.60
2022-09-29T09:11:29.246Z,8.80
2022-09-29T09:12:29.399Z,6.70
2022-09-29T09:13:29.567Z,6.30
2022-09-29T09:14:29.763Z,6.00
2022-09-29T09:15:29.935Z,7.50
2022-09-29T09:16:30.259Z,6.70
2022-09-29T09:17:30.372Z,6.00
2022-09-29T09:18:30.478Z,7.80
2022-09-29T09:19:30.685Z,5.70
2022-09-29T09:20:30.873Z,13.20
2022-09-29T09:21:31.018Z,6.90
2022-09-29T09:22:31.228Z,5.90
2022-09-29T09:23:31.384Z,5.80
2022-09-29T09:24:31.588Z,6.00
2022-09-29T09:25:31.732Z,3.80
2022-09-29T09:26:31.930Z,7.10
2022-09-29T09:27:32.113Z,4.70
2022-09-29T09:28:32.287Z,5.00
2022-09-29T09:29:37.270Z,3.70
2022-09-29T09:30:33.689Z,4.70
2022-09-29T09:31:32.811Z,4.80
2022-09-29T09:32:32.989Z,4.30
2022-09-29T09:33:33.151Z,3.40
2022-09-29T09:34:43.026Z,3.00
2022-09-29T09:35:34.557Z,3.40
2022-09-29T09:36:34.651Z,3.50
2022-09-29T09:37:33.871Z,4.20
2022-09-29T09:38:34.074Z,3.50
2022-09-29T09:39:34.257Z,5.70
2022-09-29T09:40:34.400Z,3.70
2022-09-29T09:41:36.169Z,3.50
2022-09-29T09:42:34.714Z,3.50
2022-09-29T09:43:34.906Z,3.70
2022-09-29T09:44:35.090Z,2.70
2022-09-29T09:45:35.279Z,3.30
2022-09-29T09:46:35.482Z,4.10
2022-09-29T09:47:35.604Z,3.90
2022-09-29T09:48:35.784Z,2.70
2022-09-29T09:49:35.954Z,5.10
2022-09-29T09:50:36.155Z,3.60
2022-09-29T09:51:36.355Z,3.20
2022-09-29T09:52:36.484Z,3.10
2022-09-29T09:53:36.668Z,3.40
2022-09-29T09:54:36.855Z,3.90
2022-09-29T09:55:37.056Z,4.30
2022-09-29T09:56:37.205Z,3.00
2022-09-29T09:57:37.386Z,3.90
2022-09-29T09:58:37.565Z,4.60
2022-09-29T09:59:37.755Z,6.30
2022-09-29T10:00:37.957Z,8.20
2022-09-29T10:01:38.182Z,9.80
2022-09-29T10:02:38.354Z,8.70
2022-09-29T10:03:38.466Z,3.50
2022-09-29T10:04:38.657Z,4.50
2022-09-29T10:05:38.942Z,3.80
2022-09-29T10:06:39.050Z,4.80
2022-09-29T10:07:39.156Z,3.60
2022-09-29T10:08:39.337Z,4.30
2022-09-29T10:09:39.561Z,1.90
2022-09-29T10:10:51.067Z,2.60
2022-09-29T10:11:40.858Z,2.90
2022-09-29T10:12:40.051Z,2.40
2022-09-29T10:13:40.255Z,3.50
2022-09-29T10:14:40.420Z,3.50
2022-09-29T10:15:40.586Z,4.70
2022-09-29T10:16:40.815Z,2.70
2022-09-29T10:17:40.920Z,29.60
2022-09-29T10:18:41.088Z,13.10
2022-09-29T10:19:41.277Z,5.80
2022-09-29T10:20:41.467Z,5.30
2022-09-29T10:21:41.648Z,8.50
2022-09-29T10:22:41.828Z,3.90
2022-09-29T10:23:42.015Z,10.50
2022-09-29T10:24:42.278Z,6.20
2022-09-29T10:25:42.369Z,3.60
2022-09-29T10:26:42.498Z,4.30
2022-09-29T10:27:42.688Z,2.90
2022-09-29T10:28:42.867Z,2.90
2022-09-29T10:29:43.060Z,5.70
2022-09-29T10:30:43.321Z,3.20
2022-09-29T10:31:43.418Z,2.20
2022-09-29T10:32:43.601Z,4.20
2022-09-29T10:33:43.780Z,2.10
2022-09-29T10:34:43.967Z,2.60
2022-09-29T10:35:44.159Z,4.00
2022-09-29T10:36:44.307Z,2.10
2022-09-29T10:37:44.545Z,2.80
2022-09-29T10:38:44.650Z,4.00
2022-09-29T10:39:44.834Z,1.80
2022-09-29T10:40:45.036Z,1.90
2022-09-29T10:41:45.202Z,3.30
2022-09-29T10:42:45.379Z,3.10
2022-09-29T10:43:45.550Z,3.30
2022-09-29T10:44:45.752Z,2.10
2022-09-29T10:45:45.986Z,4.70
2022-09-29T10:46:46.120Z,3.40
2022-09-29T10:47:46.270Z,3.20
2022-09-29T10:48:46.430Z,1.90
2022-09-29T10:49:46.610Z,3.70
2022-09-29T10:50:46.823Z,2.20
2022-09-29T10:51:46.958Z,3.80
2022-09-29T10:52:47.133Z,2.70
2022-09-29T10:53:47.320Z,2.40
2022-09-29T10:54:47.500Z,1.60
2022-09-29T10:55:47.697Z,1.60
2022-09-29T10:56:47.876Z,1.50
2022-09-29T10:57:48.011Z,2.00
2022-09-29T10:59:05.963Z,2.20
2022-09-29T10:59:49.340Z,2.00
2022-09-29T11:00:48.523Z,1.50
2022-09-29T11:01:48.699Z,1.50
2022-09-29T11:02:48.881Z,1.10
2022-09-29T11:03:49.061Z,2.40
2022-09-29T11:04:49.241Z,4.00
2022-09-29T11:05:49.452Z,0.90
2022-09-29T11:06:49.591Z,3.00
2022-09-29T11:07:49.782Z,2.80
2022-09-29T11:08:49.921Z,1.20
2022-09-29T11:09:50.111Z,1.40
2022-09-29T11:10:50.308Z,1.50
2022-09-29T11:11:50.471Z,1.80
2022-09-29T11:12:50.651Z,2.70
2022-09-29T11:13:50.886Z,2.30
2022-09-29T11:14:51.011Z,1.90
2022-09-29T11:15:51.212Z,1.40
2022-09-29T11:16:51.413Z,1.50
2022-09-29T11:17:51.530Z,2.00
2022-09-29T11:18:51.691Z,1.00
2022-09-29T11:19:51.882Z,1.00
2022-09-29T11:20:52.062Z,1.50
2022-09-29T11:21:52.223Z,1.80
2022-09-29T11:22:52.393Z,2.40
2022-09-29T11:23:52.594Z,1.60
2022-09-29T11:24:52.754Z,2.40
2022-09-29T11:25:52.966Z,1.90
2022-09-29T11:26:53.117Z,0.80
2022-09-29T11:27:53.323Z,1.40
2022-09-29T11:28:53.486Z,1.00
2022-09-29T11:29:53.653Z,0.60
2022-09-29T11:30:53.907Z,1.30
2022-09-29T11:31:54.003Z,1.40
2022-09-29T11:32:54.183Z,2.20
2022-09-29T11:33:54.373Z,1.50
2022-09-29T11:34:54.534Z,0.70
2022-09-29T11:35:54.743Z,1.40
2022-09-29T11:36:54.966Z,2.50
2022-09-29T11:37:55.043Z,1.20
2022-09-29T11:38:55.278Z,2.00
2022-09-29T11:39:55.423Z,0.80
2022-09-29T11:40:55.604Z,1.10
2022-09-29T11:41:55.764Z,1.20
2022-09-29T11:42:55.948Z,0.80
2022-09-29T11:43:56.156Z,0.40
2022-09-29T11:44:56.295Z,2.20
2022-09-29T11:45:56.543Z,2.00
2022-09-29T11:46:56.635Z,2.40
2022-09-29T11:47:56.824Z,2.60
2022-09-29T11:48:57.004Z,1.70
2022-09-29T11:49:57.195Z,1.30
2022-09-29T11:50:57.385Z,1.10
2022-09-29T11:51:57.575Z,0.70
2022-09-29T11:52:57.724Z,1.30
2022-09-29T11:53:57.918Z,4.00
2022-09-29T11:54:58.075Z,1.30
2022-09-29T11:55:58.227Z,1.20
2022-09-29T11:56:58.395Z,0.50
2022-09-29T11:57:58.575Z,0.30
2022-09-29T11:58:58.749Z,1.90
2022-09-29T11:59:58.946Z,1.30
2022-09-29T12:00:59.085Z,0.80
2022-09-29T12:01:59.307Z,3.00
2022-09-29T12:02:59.771Z,1.20
2022-09-29T12:03:59.616Z,3.30
2022-09-29T12:04:59.813Z,0.40
2022-09-29T12:05:59.990Z,0.60
2022-09-29T12:07:00.126Z,0.30
2022-09-29T12:08:00.314Z,1.20
2022-09-29T12:09:01.500Z,0.60
2022-09-29T12:10:00.711Z,1.00
2022-09-29T12:11:06.153Z,4.10
2022-09-29T12:13:02.195Z,0.60
2022-09-29T12:14:01.386Z,0.40
2022-09-29T12:15:01.797Z,0.70
2022-09-29T12:16:01.774Z,0.80
2022-09-29T12:17:01.964Z,0.40
2022-09-29T12:18:02.156Z,0.80
2022-09-29T12:19:02.297Z,1.10
2022-09-29T12:20:02.499Z,1.40
2022-09-29T12:21:02.673Z,0.40
2022-09-29T12:22:02.809Z,0.60
2022-09-29T12:23:02.953Z,0.70
2022-09-29T12:24:03.147Z,0.60
2022-09-29T12:25:03.339Z,1.40
2022-09-29T12:26:03.481Z,0.20
2022-09-29T12:27:03.667Z,1.40
2022-09-29T12:28:03.863Z,1.70
2022-09-29T12:29:04.069Z,0.70
2022-09-29T12:30:04.327Z,0.30
2022-09-29T12:31:04.523Z,0.50
2022-09-29T12:32:04.574Z,0.20
2022-09-29T12:33:04.761Z,1.50
2022-09-29T12:34:04.960Z,0.70
2022-09-29T12:35:05.137Z,0.20
2022-09-29T12:36:05.269Z,1.50
2022-09-29T12:37:05.453Z,0.50
2022-09-29T12:38:05.632Z,0.80
2022-09-29T12:39:10.179Z,0.30
2022-09-29T12:40:05.999Z,0.70
2022-09-29T12:41:06.142Z,1.40
2022-09-29T12:42:06.329Z,1.50
2022-09-29T12:43:06.515Z,0.30
2022-09-29T12:44:06.691Z,0.70
2022-09-29T12:45:10.808Z,1.80
2022-09-29T12:46:07.094Z,2.20
2022-09-29T12:47:07.232Z,0.20
2022-09-29T12:48:07.422Z,2.00
2022-09-29T12:49:07.607Z,0.90
2022-09-29T12:50:07.829Z,0.60
2022-09-29T12:51:07.961Z,0.70
2022-09-29T12:52:08.142Z,0.60
2022-09-29T12:53:09.238Z,5.40
2022-09-29T12:54:11.126Z,3.40
2022-09-29T12:55:09.682Z,3.10
2022-09-29T12:56:08.840Z,1.90
2022-09-29T12:57:09.021Z,0.40
2022-09-29T12:58:09.202Z,0.40
2022-09-29T12:59:09.391Z,0.70
2022-09-29T13:00:09.597Z,0.40
2022-09-29T13:01:09.766Z,0.50
2022-09-29T13:02:09.937Z,1.20
2022-09-29T13:03:10.070Z,0.70
2022-09-29T13:04:14.791Z,1.00
2022-09-29T13:05:11.441Z,0.10
2022-09-29T13:06:10.599Z,1.90
2022-09-29T13:07:10.786Z,0.40
2022-09-29T13:08:12.201Z,4.10
2022-09-29T13:09:11.182Z,0.50
2022-09-29T13:10:11.332Z,1.20
2022-09-29T13:11:11.486Z,0.60
2022-09-29T13:12:11.653Z,1.80
2022-09-29T13:13:11.833Z,1.30
2022-09-29T13:14:12.023Z,1.00
2022-09-29T13:15:12.223Z,0.90
2022-09-29T13:16:12.440Z,0.50
2022-09-29T13:17:12.570Z,0.50